PWSweather.com
Personal Weather Stations
Station Observations
BNUMANCIA
BarcelonaES 08029

BarcelonaES 08029

Lat: 41.3855863, Lon: 2.1367624

Elevation: 46

Station Type: WMR180

High Low Average
Temperature 82.4°F28.0°F 66.4°F19.1°F 72.3°F22.4°F
Dew Point 64.4°F18.0°F 57.4°F14.1°F 61.0°F16.1°F
Winds 11.0 mph S17.7 mph S Calm Calm 1.5 mph 2.4 mph
Wind Gusts 11.9 mph19.2 mph -- 2.3 mph3.7 mph
Humidity 89% 48% 69%
Pressure 30.30 in1026.10 in 30.21 in1023.00 in -
Precipitation 0.00 in0.00 in - -
Hour Temp Dew Point Humidity Winds Wind Gusts Pressure Precip Precip Rate Daily Precip Total
01:00 AM 68.4°F20.2°C 64.4°F18.0°C 87% 4.7 mph NE7.6 kmh NE 6.4 mph10.3 kmh 30.24 in1024.0 mb 0.00 in0.0 mm 0.00 in/hr0.0 mm/hr 0.00 in0.0 mm
01:04 AM 68.4°F20.2°C 64.4°F18.0°C 87% 1.6 mph 2.6 kmh 1.7 mph2.7 kmh 30.24 in1024.0 mb 0.00 in0.0 mm 0.00 in/hr0.0 mm/hr 0.00 in0.0 mm
01:08 AM 68.4°F20.2°C 64.0°F17.8°C 86% 2.3 mph NNE3.7 kmh NNE 10.6 mph17.1 kmh 30.24 in1024.0 mb 0.00 in0.0 mm 0.00 in/hr0.0 mm/hr 0.00 in0.0 mm
01:14 AM 68.4°F20.2°C 64.0°F17.8°C 86% 1.6 mph ENE2.6 kmh ENE 1.7 mph2.7 kmh 30.24 in1024.0 mb 0.00 in0.0 mm 0.00 in/hr0.0 mm/hr 0.00 in0.0 mm
01:18 AM 68.4°F20.2°C 63.7°F17.6°C 85% 2.7 mph NE4.3 kmh NE 8.5 mph13.7 kmh 30.24 in1024.0 mb 0.00 in0.0 mm 0.00 in/hr0.0 mm/hr 0.00 in0.0 mm
01:24 AM 68.4°F20.2°C 63.7°F17.6°C 85% 6.3 mph NNE10.1 kmh NNE 6.8 mph10.9 kmh 30.27 in1025.1 mb 0.00 in0.0 mm 0.00 in/hr0.0 mm/hr 0.00 in0.0 mm
01:29 AM 68.4°F20.2°C 63.7°F17.6°C 85% 7.0 mph NNE11.3 kmh NNE 7.7 mph12.4 kmh 30.27 in1025.1 mb 0.00 in0.0 mm 0.00 in/hr0.0 mm/hr 0.00 in0.0 mm
01:33 AM 68.4°F20.2°C 63.3°F17.4°C 84% 6.7 mph NNE10.8 kmh NNE 8.1 mph13.0 kmh 30.27 in1025.1 mb 0.00 in0.0 mm 0.00 in/hr0.0 mm/hr 0.00 in0.0 mm
01:39 AM 68.2°F20.1°C 63.2°F17.3°C 84% 7.4 mph NNE11.9 kmh NNE 8.1 mph13.0 kmh 30.27 in1025.1 mb 0.00 in0.0 mm 0.00 in/hr0.0 mm/hr 0.00 in0.0 mm
01:44 AM 68.2°F20.1°C 63.2°F17.3°C 84% Calm Calm -- 30.27 in1025.1 mb 0.00 in0.0 mm 0.00 in/hr0.0 mm/hr 0.00 in0.0 mm
01:48 AM 68.0°F20.0°C 63.0°F17.2°C 84% 1.6 mph NNE2.6 kmh NNE 1.7 mph2.7 kmh 30.27 in1025.1 mb 0.00 in0.0 mm 0.00 in/hr0.0 mm/hr 0.00 in0.0 mm
01:55 AM 68.0°F20.0°C 63.3°F17.4°C 85% 5.5 mph NE8.9 kmh NE 6.0 mph9.7 kmh 30.27 in1025.1 mb 0.00 in0.0 mm 0.00 in/hr0.0 mm/hr 0.00 in0.0 mm
02:00 AM 68.0°F20.0°C 63.3°F17.4°C 85% Calm Calm -- 30.27 in1025.1 mb 0.00 in0.0 mm 0.00 in/hr0.0 mm/hr 0.00 in0.0 mm
02:05 AM 68.0°F20.0°C 63.3°F17.4°C 85% Calm Calm -- 30.27 in1025.1 mb 0.00 in0.0 mm 0.00 in/hr0.0 mm/hr 0.00 in0.0 mm
02:09 AM 67.8°F19.9°C 63.2°F17.3°C 85% Calm Calm -- 30.27 in1025.1 mb 0.00 in0.0 mm 0.00 in/hr0.0 mm/hr 0.00 in0.0 mm
02:14 AM 67.6°F19.8°C 63.0°F17.2°C 85% Calm Calm -- 30.27 in1025.1 mb 0.00 in0.0 mm 0.00 in/hr0.0 mm/hr 0.00 in0.0 mm
02:19 AM 67.5°F19.7°C 62.8°F17.1°C 85% Calm Calm -- 30.27 in1025.1 mb 0.00 in0.0 mm 0.00 in/hr0.0 mm/hr 0.00 in0.0 mm
02:24 AM 67.3°F19.6°C 62.6°F17.0°C 85% Calm Calm -- 30.27 in1025.1 mb 0.00 in0.0 mm 0.00 in/hr0.0 mm/hr 0.00 in0.0 mm
02:30 AM 67.3°F19.6°C 62.6°F17.0°C 85% Calm Calm -- 30.27 in1025.1 mb 0.00 in0.0 mm 0.00 in/hr0.0 mm/hr 0.00 in0.0 mm
02:33 AM 67.3°F19.6°C 63.0°F17.2°C 86% Calm Calm -- 30.27 in1025.1 mb 0.00 in0.0 mm 0.00 in/hr0.0 mm/hr 0.00 in0.0 mm
02:39 AM 67.3°F19.6°C 63.0°F17.2°C 86% 4.7 mph 7.6 kmh 5.1 mph8.2 kmh 30.27 in1025.1 mb 0.00 in0.0 mm 0.00 in/hr0.0 mm/hr 0.00 in0.0 mm
02:44 AM 67.5°F19.7°C 63.1°F17.3°C 86% 5.1 mph S8.2 kmh S 5.5 mph8.9 kmh 30.27 in1025.1 mb 0.00 in0.0 mm 0.00 in/hr0.0 mm/hr 0.00 in0.0 mm
02:49 AM 67.6°F19.8°C 63.3°F17.4°C 86% Calm Calm -- 30.27 in1025.1 mb 0.00 in0.0 mm 0.00 in/hr0.0 mm/hr 0.00 in0.0 mm
02:55 AM 67.5°F19.7°C 63.1°F17.3°C 86% Calm Calm -- 30.27 in1025.1 mb 0.00 in0.0 mm 0.00 in/hr0.0 mm/hr 0.00 in0.0 mm
03:00 AM 67.3°F19.6°C 63.0°F17.2°C 86% 2.3 mph NNW3.7 kmh NNW 2.6 mph4.2 kmh 30.27 in1025.1 mb 0.00 in0.0 mm 0.00 in/hr0.0 mm/hr 0.00 in0.0 mm
03:05 AM 67.5°F19.7°C 63.1°F17.3°C 86% 4.3 mph NNE6.9 kmh NNE 4.7 mph7.6 kmh 30.27 in1025.1 mb 0.00 in0.0 mm 0.00 in/hr0.0 mm/hr 0.00 in0.0 mm
03:09 AM 67.5°F19.7°C 63.1°F17.3°C 86% 3.5 mph NNE5.6 kmh NNE 4.3 mph6.9 kmh 30.27 in1025.1 mb 0.00 in0.0 mm 0.00 in/hr0.0 mm/hr 0.00 in0.0 mm
03:14 AM 67.5°F19.7°C 63.1°F17.3°C 86% 2.7 mph NNE4.3 kmh NNE 4.7 mph7.6 kmh 30.27 in1025.1 mb 0.00 in0.0 mm 0.00 in/hr0.0 mm/hr 0.00 in0.0 mm
03:19 AM 67.5°F19.7°C 63.1°F17.3°C 86% 4.3 mph NNE6.9 kmh NNE 4.7 mph7.6 kmh 30.27 in1025.1 mb 0.00 in0.0 mm 0.00 in/hr0.0 mm/hr 0.00 in0.0 mm
03:24 AM 67.6°F19.8°C 63.6°F17.6°C 87% Calm Calm -- 30.24 in1024.0 mb 0.00 in0.0 mm 0.00 in/hr0.0 mm/hr 0.00 in0.0 mm
03:29 AM 67.6°F19.8°C 63.3°F17.4°C 86% Calm Calm -- 30.24 in1024.0 mb 0.00 in0.0 mm 0.00 in/hr0.0 mm/hr 0.00 in0.0 mm
03:34 AM 67.5°F19.7°C 63.1°F17.3°C 86% Calm Calm -- 30.24 in1024.0 mb 0.00 in0.0 mm 0.00 in/hr0.0 mm/hr 0.00 in0.0 mm
03:39 AM 67.5°F19.7°C 63.5°F17.5°C 87% Calm Calm -- 30.24 in1024.0 mb 0.00 in0.0 mm 0.00 in/hr0.0 mm/hr 0.00 in0.0 mm
03:44 AM 67.5°F19.7°C 63.1°F17.3°C 86% Calm Calm -- 30.24 in1024.0 mb 0.00 in0.0 mm 0.00 in/hr0.0 mm/hr 0.00 in0.0 mm
03:48 AM 67.3°F19.6°C 63.0°F17.2°C 86% Calm Calm -- 30.24 in1024.0 mb 0.00 in0.0 mm 0.00 in/hr0.0 mm/hr 0.00 in0.0 mm
03:55 AM 67.1°F19.5°C 63.1°F17.3°C 87% Calm Calm -- 30.24 in1024.0 mb 0.00 in0.0 mm 0.00 in/hr0.0 mm/hr 0.00 in0.0 mm
04:00 AM 67.1°F19.5°C 63.1°F17.3°C 87% Calm Calm -- 30.24 in1024.0 mb 0.00 in0.0 mm 0.00 in/hr0.0 mm/hr 0.00 in0.0 mm
04:05 AM 66.9°F19.4°C 62.9°F17.2°C 87% Calm Calm -- 30.24 in1024.0 mb 0.00 in0.0 mm 0.00 in/hr0.0 mm/hr 0.00 in0.0 mm
04:09 AM 67.1°F19.5°C 63.1°F17.3°C 87% 2.0 mph NE3.2 kmh NE 2.1 mph3.4 kmh 30.24 in1024.0 mb 0.00 in0.0 mm 0.00 in/hr0.0 mm/hr 0.00 in0.0 mm
04:14 AM 67.1°F19.5°C 63.4°F17.4°C 88% Calm Calm -- 30.24 in1024.0 mb 0.00 in0.0 mm 0.00 in/hr0.0 mm/hr 0.00 in0.0 mm
04:19 AM 66.9°F19.4°C 63.3°F17.4°C 88% Calm Calm -- 30.24 in1024.0 mb 0.00 in0.0 mm 0.00 in/hr0.0 mm/hr 0.00 in0.0 mm
04:24 AM 66.9°F19.4°C 63.3°F17.4°C 88% Calm Calm -- 30.24 in1024.0 mb 0.00 in0.0 mm 0.00 in/hr0.0 mm/hr 0.00 in0.0 mm
04:29 AM 66.9°F19.4°C 62.9°F17.2°C 87% Calm Calm -- 30.24 in1024.0 mb 0.00 in0.0 mm 0.00 in/hr0.0 mm/hr 0.00 in0.0 mm
04:34 AM 66.7°F19.3°C 62.8°F17.1°C 87% Calm Calm -- 30.24 in1024.0 mb 0.00 in0.0 mm 0.00 in/hr0.0 mm/hr 0.00 in0.0 mm
04:39 AM 66.7°F19.3°C 62.8°F17.1°C 87% Calm Calm -- 30.24 in1024.0 mb 0.00 in0.0 mm 0.00 in/hr0.0 mm/hr 0.00 in0.0 mm
04:44 AM 66.7°F19.3°C 63.1°F17.3°C 88% Calm Calm -- 30.24 in1024.0 mb 0.00 in0.0 mm 0.00 in/hr0.0 mm/hr 0.00 in0.0 mm
04:49 AM 66.7°F19.3°C 63.1°F17.3°C 88% 2.3 mph NNE3.7 kmh NNE 2.6 mph4.2 kmh 30.24 in1024.0 mb 0.00 in0.0 mm 0.00 in/hr0.0 mm/hr 0.00 in0.0 mm
04:55 AM 66.7°F19.3°C 63.1°F17.3°C 88% Calm Calm -- 30.24 in1024.0 mb 0.00 in0.0 mm 0.00 in/hr0.0 mm/hr 0.00 in0.0 mm
05:00 AM 66.6°F19.2°C 62.9°F17.2°C 88% 3.9 mph NNE6.3 kmh NNE 4.3 mph6.9 kmh 30.24 in1024.0 mb 0.00 in0.0 mm 0.00 in/hr0.0 mm/hr 0.00 in0.0 mm
05:05 AM 66.6°F19.2°C 62.9°F17.2°C 88% 2.3 mph NNE3.7 kmh NNE 2.6 mph4.2 kmh 30.24 in1024.0 mb 0.00 in0.0 mm 0.00 in/hr0.0 mm/hr 0.00 in0.0 mm
05:09 AM 66.7°F19.3°C 63.1°F17.3°C 88% Calm Calm -- 30.24 in1024.0 mb 0.00 in0.0 mm 0.00 in/hr0.0 mm/hr 0.00 in0.0 mm
05:14 AM 66.6°F19.2°C 62.9°F17.2°C 88% Calm Calm -- 30.24 in1024.0 mb 0.00 in0.0 mm 0.00 in/hr0.0 mm/hr 0.00 in0.0 mm
05:19 AM 66.6°F19.2°C 62.9°F17.2°C 88% Calm Calm -- 30.24 in1024.0 mb 0.00 in0.0 mm 0.00 in/hr0.0 mm/hr 0.00 in0.0 mm
05:24 AM 66.6°F19.2°C 62.9°F17.2°C 88% Calm Calm -- 30.24 in1024.0 mb 0.00 in0.0 mm 0.00 in/hr0.0 mm/hr 0.00 in0.0 mm
05:28 AM 66.6°F19.2°C 62.9°F17.2°C 88% 2.7 mph NNE4.3 kmh NNE 4.3 mph6.9 kmh 30.24 in1024.0 mb 0.00 in0.0 mm 0.00 in/hr0.0 mm/hr 0.00 in0.0 mm
05:34 AM 66.6°F19.2°C 62.9°F17.2°C 88% Calm Calm -- 30.24 in1024.0 mb 0.00 in0.0 mm 0.00 in/hr0.0 mm/hr 0.00 in0.0 mm
05:39 AM 66.6°F19.2°C 62.9°F17.2°C 88% Calm Calm -- 30.24 in1024.0 mb 0.00 in0.0 mm 0.00 in/hr0.0 mm/hr 0.00 in0.0 mm
05:44 AM 66.6°F19.2°C 62.9°F17.2°C 88% Calm Calm -- 30.24 in1024.0 mb 0.00 in0.0 mm 0.00 in/hr0.0 mm/hr 0.00 in0.0 mm
05:49 AM 66.6°F19.2°C 62.9°F17.2°C 88% 3.5 mph NNE5.6 kmh NNE 3.8 mph6.1 kmh 30.24 in1024.0 mb 0.00 in0.0 mm 0.00 in/hr0.0 mm/hr 0.00 in0.0 mm
05:55 AM 66.6°F19.2°C 62.9°F17.2°C 88% 1.6 mph NNE2.6 kmh NNE 3.0 mph4.8 kmh 30.27 in1025.1 mb 0.00 in0.0 mm 0.00 in/hr0.0 mm/hr 0.00 in0.0 mm
06:00 AM 66.6°F19.2°C 62.9°F17.2°C 88% Calm Calm -- 30.27 in1025.1 mb 0.00 in0.0 mm 0.00 in/hr0.0 mm/hr 0.00 in0.0 mm
06:05 AM 66.6°F19.2°C 62.9°F17.2°C 88% Calm Calm -- 30.27 in1025.1 mb 0.00 in0.0 mm 0.00 in/hr0.0 mm/hr 0.00 in0.0 mm
06:09 AM 66.6°F19.2°C 62.9°F17.2°C 88% Calm Calm -- 30.27 in1025.1 mb 0.00 in0.0 mm 0.00 in/hr0.0 mm/hr 0.00 in0.0 mm
06:14 AM 66.6°F19.2°C 62.9°F17.2°C 88% Calm Calm -- 30.27 in1025.1 mb 0.00 in0.0 mm 0.00 in/hr0.0 mm/hr 0.00 in0.0 mm
06:19 AM 66.4°F19.1°C 62.7°F17.1°C 88% Calm Calm -- 30.27 in1025.1 mb 0.00 in0.0 mm 0.00 in/hr0.0 mm/hr 0.00 in0.0 mm
06:24 AM 66.4°F19.1°C 62.7°F17.1°C 88% Calm Calm -- 30.27 in1025.1 mb 0.00 in0.0 mm 0.00 in/hr0.0 mm/hr 0.00 in0.0 mm
06:29 AM 66.4°F19.1°C 62.7°F17.1°C 88% Calm Calm -- 30.27 in1025.1 mb 0.00 in0.0 mm 0.00 in/hr0.0 mm/hr 0.00 in0.0 mm
06:34 AM 66.4°F19.1°C 62.7°F17.1°C 88% Calm Calm -- 30.27 in1025.1 mb 0.00 in0.0 mm 0.00 in/hr0.0 mm/hr 0.00 in0.0 mm
06:39 AM 66.6°F19.2°C 63.2°F17.3°C 89% Calm Calm -- 30.27 in1025.1 mb 0.00 in0.0 mm 0.00 in/hr0.0 mm/hr 0.00 in0.0 mm
06:44 AM 66.6°F19.2°C 63.2°F17.3°C 89% Calm Calm 2.6 mph4.2 kmh 30.27 in1025.1 mb 0.00 in0.0 mm 0.00 in/hr0.0 mm/hr 0.00 in0.0 mm
06:49 AM 66.7°F19.3°C 63.4°F17.4°C 89% Calm Calm -- 30.27 in1025.1 mb 0.00 in0.0 mm 0.00 in/hr0.0 mm/hr 0.00 in0.0 mm
06:55 AM 66.7°F19.3°C 63.1°F17.3°C 88% Calm Calm -- 30.27 in1025.1 mb 0.00 in0.0 mm 0.00 in/hr0.0 mm/hr 0.00 in0.0 mm
07:00 AM 66.9°F19.4°C 63.3°F17.4°C 88% 2.0 mph NE3.2 kmh NE 2.1 mph3.4 kmh 30.27 in1025.1 mb 0.00 in0.0 mm 0.00 in/hr0.0 mm/hr 0.00 in0.0 mm
07:05 AM 66.9°F19.4°C 63.3°F17.4°C 88% 3.9 mph NNE6.3 kmh NNE 7.2 mph11.6 kmh 30.27 in1025.1 mb 0.00 in0.0 mm 0.00 in/hr0.0 mm/hr 0.00 in0.0 mm
07:09 AM 67.1°F19.5°C 63.1°F17.3°C 87% 4.3 mph NE6.9 kmh NE 4.7 mph7.6 kmh 30.27 in1025.1 mb 0.00 in0.0 mm 0.00 in/hr0.0 mm/hr 0.00 in0.0 mm
07:14 AM 67.1°F19.5°C 62.8°F17.1°C 86% 5.1 mph ENE8.2 kmh ENE 5.5 mph8.9 kmh 30.27 in1025.1 mb 0.00 in0.0 mm 0.00 in/hr0.0 mm/hr 0.00 in0.0 mm
07:19 AM 67.3°F19.6°C 62.6°F17.0°C 85% 5.1 mph 8.2 kmh 5.5 mph8.9 kmh 30.27 in1025.1 mb 0.00 in0.0 mm 0.00 in/hr0.0 mm/hr 0.00 in0.0 mm
07:24 AM 67.3°F19.6°C 62.3°F16.8°C 84% 5.9 mph NNE9.5 kmh NNE 8.1 mph13.0 kmh 30.27 in1025.1 mb 0.00 in0.0 mm 0.00 in/hr0.0 mm/hr 0.00 in0.0 mm
07:29 AM 67.5°F19.7°C 61.8°F16.6°C 82% 2.3 mph WNW3.7 kmh WNW 4.7 mph7.6 kmh 30.27 in1025.1 mb 0.00 in0.0 mm 0.00 in/hr0.0 mm/hr 0.00 in0.0 mm
07:34 AM 67.6°F19.8°C 62.0°F16.7°C 82% 2.0 mph NNE3.2 kmh NNE 6.4 mph10.3 kmh 30.27 in1025.1 mb 0.00 in0.0 mm 0.00 in/hr0.0 mm/hr 0.00 in0.0 mm
07:38 AM 67.6°F19.8°C 61.6°F16.4°C 81% 5.1 mph NNE8.2 kmh NNE 6.8 mph10.9 kmh 30.27 in1025.1 mb 0.00 in0.0 mm 0.00 in/hr0.0 mm/hr 0.00 in0.0 mm
07:43 AM 67.8°F19.9°C 61.8°F16.6°C 81% 4.3 mph NNE6.9 kmh NNE 5.1 mph8.2 kmh 30.27 in1025.1 mb 0.00 in0.0 mm 0.00 in/hr0.0 mm/hr 0.00 in0.0 mm
07:48 AM 68.0°F20.0°C 62.0°F16.7°C 81% 2.7 mph NNE4.3 kmh NNE 4.7 mph7.6 kmh 30.27 in1025.1 mb 0.00 in0.0 mm 0.00 in/hr0.0 mm/hr 0.00 in0.0 mm
07:55 AM 68.4°F20.2°C 62.3°F16.8°C 81% 3.5 mph NNE5.6 kmh NNE 3.8 mph6.1 kmh 30.27 in1025.1 mb 0.00 in0.0 mm 0.00 in/hr0.0 mm/hr 0.00 in0.0 mm
08:00 AM 68.5°F20.3°C 62.1°F16.7°C 80% 2.7 mph 4.3 kmh 3.0 mph4.8 kmh 30.27 in1025.1 mb 0.00 in0.0 mm 0.00 in/hr0.0 mm/hr 0.00 in0.0 mm
08:05 AM 68.7°F20.4°C 62.3°F16.8°C 80% 5.5 mph NNE8.9 kmh NNE 6.8 mph10.9 kmh 30.27 in1025.1 mb 0.00 in0.0 mm 0.00 in/hr0.0 mm/hr 0.00 in0.0 mm
08:09 AM 68.9°F20.5°C 62.5°F16.9°C 80% Calm Calm -- 30.27 in1025.1 mb 0.00 in0.0 mm 0.00 in/hr0.0 mm/hr 0.00 in0.0 mm
08:14 AM 69.1°F20.6°C 62.3°F16.8°C 79% Calm Calm -- 30.27 in1025.1 mb 0.00 in0.0 mm 0.00 in/hr0.0 mm/hr 0.00 in0.0 mm
08:18 AM 69.3°F20.7°C 62.5°F16.9°C 79% Calm Calm -- 30.27 in1025.1 mb 0.00 in0.0 mm 0.00 in/hr0.0 mm/hr 0.00 in0.0 mm
08:24 AM 69.6°F20.9°C 62.8°F17.1°C 79% Calm Calm -- 30.27 in1025.1 mb 0.00 in0.0 mm 0.00 in/hr0.0 mm/hr 0.00 in0.0 mm
08:29 AM 69.8°F21.0°C 63.0°F17.2°C 79% 2.0 mph NNE3.2 kmh NNE 2.6 mph4.2 kmh 30.27 in1025.1 mb 0.00 in0.0 mm 0.00 in/hr0.0 mm/hr 0.00 in0.0 mm
08:34 AM 70.2°F21.2°C 63.4°F17.4°C 79% Calm Calm -- 30.27 in1025.1 mb 0.00 in0.0 mm 0.00 in/hr0.0 mm/hr 0.00 in0.0 mm
08:39 AM 70.3°F21.3°C 63.5°F17.5°C 79% Calm Calm -- 30.27 in1025.1 mb 0.00 in0.0 mm 0.00 in/hr0.0 mm/hr 0.00 in0.0 mm
08:43 AM 70.5°F21.4°C 63.3°F17.4°C 78% Calm Calm -- 30.27 in1025.1 mb 0.00 in0.0 mm 0.00 in/hr0.0 mm/hr 0.00 in0.0 mm
08:49 AM 70.7°F21.5°C 63.5°F17.5°C 78% Calm Calm -- 30.27 in1025.1 mb 0.00 in0.0 mm 0.00 in/hr0.0 mm/hr 0.00 in0.0 mm
08:55 AM 70.9°F21.6°C 63.7°F17.6°C 78% Calm Calm -- 30.27 in1025.1 mb 0.00 in0.0 mm 0.00 in/hr0.0 mm/hr 0.00 in0.0 mm
09:00 AM 70.9°F21.6°C 63.7°F17.6°C 78% Calm Calm -- 30.27 in1025.1 mb 0.00 in0.0 mm 0.00 in/hr0.0 mm/hr 0.00 in0.0 mm
09:05 AM 71.2°F21.8°C 63.7°F17.6°C 77% Calm Calm -- 30.27 in1025.1 mb 0.00 in0.0 mm 0.00 in/hr0.0 mm/hr 0.00 in0.0 mm
09:09 AM 71.6°F22.0°C 63.6°F17.6°C 76% Calm Calm -- 30.27 in1025.1 mb 0.00 in0.0 mm 0.00 in/hr0.0 mm/hr 0.00 in0.0 mm
09:14 AM 71.8°F22.1°C 63.4°F17.4°C 75% 1.6 mph SE2.6 kmh SE 1.7 mph2.7 kmh 30.27 in1025.1 mb 0.00 in0.0 mm 0.00 in/hr0.0 mm/hr 0.00 in0.0 mm
09:19 AM 72.0°F22.2°C 62.8°F17.1°C 73% Calm Calm 2.1 mph3.4 kmh 30.27 in1025.1 mb 0.00 in0.0 mm 0.00 in/hr0.0 mm/hr 0.00 in0.0 mm
09:24 AM 72.0°F22.2°C 62.5°F16.9°C 72% Calm Calm -- 30.30 in1026.1 mb 0.00 in0.0 mm 0.00 in/hr0.0 mm/hr 0.00 in0.0 mm
09:29 AM 72.1°F22.3°C 61.8°F16.6°C 70% Calm Calm 1.7 mph2.7 kmh 30.30 in1026.1 mb 0.00 in0.0 mm 0.00 in/hr0.0 mm/hr 0.00 in0.0 mm
09:34 AM 72.5°F22.5°C 62.2°F16.8°C 70% Calm Calm -- 30.30 in1026.1 mb 0.00 in0.0 mm 0.00 in/hr0.0 mm/hr 0.00 in0.0 mm
09:39 AM 72.3°F22.4°C 61.2°F16.2°C 68% Calm Calm -- 30.27 in1025.1 mb 0.00 in0.0 mm 0.00 in/hr0.0 mm/hr 0.00 in0.0 mm
09:44 AM 72.5°F22.5°C 59.6°F15.3°C 64% 3.9 mph NNW6.3 kmh NNW 6.0 mph9.7 kmh 30.27 in1025.1 mb 0.00 in0.0 mm 0.00 in/hr0.0 mm/hr 0.00 in0.0 mm
09:49 AM 72.9°F22.7°C 60.9°F16.1°C 66% Calm Calm -- 30.27 in1025.1 mb 0.00 in0.0 mm 0.00 in/hr0.0 mm/hr 0.00 in0.0 mm
09:54 AM 73.2°F22.9°C 61.2°F16.2°C 66% Calm Calm -- 30.27 in1025.1 mb 0.00 in0.0 mm 0.00 in/hr0.0 mm/hr 0.00 in0.0 mm
10:00 AM 73.4°F23.0°C 60.9°F16.1°C 65% 3.5 mph NNE5.6 kmh NNE 3.8 mph6.1 kmh 30.27 in1025.1 mb 0.00 in0.0 mm 0.00 in/hr0.0 mm/hr 0.00 in0.0 mm
10:05 AM 73.6°F23.1°C 60.7°F15.9°C 64% Calm Calm -- 30.27 in1025.1 mb 0.00 in0.0 mm 0.00 in/hr0.0 mm/hr 0.00 in0.0 mm
10:10 AM 73.6°F23.1°C 60.2°F15.7°C 63% 5.5 mph NNE8.9 kmh NNE 8.1 mph13.0 kmh 30.30 in1026.1 mb 0.00 in0.0 mm 0.00 in/hr0.0 mm/hr 0.00 in0.0 mm
10:14 AM 73.6°F23.1°C 59.8°F15.4°C 62% 6.7 mph NNE10.8 kmh NNE 7.7 mph12.4 kmh 30.30 in1026.1 mb 0.00 in0.0 mm 0.00 in/hr0.0 mm/hr 0.00 in0.0 mm
10:19 AM 73.9°F23.3°C 60.1°F15.6°C 62% 3.5 mph NW5.6 kmh NW 7.2 mph11.6 kmh 30.30 in1026.1 mb 0.00 in0.0 mm 0.00 in/hr0.0 mm/hr 0.00 in0.0 mm
10:24 AM 74.1°F23.4°C 59.8°F15.4°C 61% 5.1 mph NNE8.2 kmh NNE 5.5 mph8.9 kmh 30.27 in1025.1 mb 0.00 in0.0 mm 0.00 in/hr0.0 mm/hr 0.00 in0.0 mm
10:28 AM 74.3°F23.5°C 59.5°F15.3°C 60% 4.7 mph NNE7.6 kmh NNE 9.4 mph15.1 kmh 30.27 in1025.1 mb 0.00 in0.0 mm 0.00 in/hr0.0 mm/hr 0.00 in0.0 mm
10:34 AM 74.5°F23.6°C 60.2°F15.7°C 61% 3.5 mph NE5.6 kmh NE 3.8 mph6.1 kmh 30.27 in1025.1 mb 0.00 in0.0 mm 0.00 in/hr0.0 mm/hr 0.00 in0.0 mm
10:39 AM 74.7°F23.7°C 59.9°F15.5°C 60% Calm Calm 1.7 mph2.7 kmh 30.30 in1026.1 mb 0.00 in0.0 mm 0.00 in/hr0.0 mm/hr 0.00 in0.0 mm
10:44 AM 75.0°F23.9°C 60.2°F15.7°C 60% 2.0 mph ESE3.2 kmh ESE 2.1 mph3.4 kmh 30.30 in1026.1 mb 0.00 in0.0 mm 0.00 in/hr0.0 mm/hr 0.00 in0.0 mm
10:49 AM 75.2°F24.0°C 59.9°F15.5°C 59% 2.3 mph NNE3.7 kmh NNE 2.6 mph4.2 kmh 30.30 in1026.1 mb 0.00 in0.0 mm 0.00 in/hr0.0 mm/hr 0.00 in0.0 mm
10:54 AM 75.4°F24.1°C 59.6°F15.3°C 58% 4.3 mph 6.9 kmh 4.7 mph7.6 kmh 30.30 in1026.1 mb 0.00 in0.0 mm 0.00 in/hr0.0 mm/hr 0.00 in0.0 mm
11:00 AM 75.4°F24.1°C 59.1°F15.1°C 57% 6.7 mph NNE10.8 kmh NNE 7.2 mph11.6 kmh 30.30 in1026.1 mb 0.00 in0.0 mm 0.00 in/hr0.0 mm/hr 0.00 in0.0 mm
11:05 AM 75.4°F24.1°C 58.6°F14.8°C 56% 6.3 mph NNE10.1 kmh NNE 6.8 mph10.9 kmh 30.30 in1026.1 mb 0.00 in0.0 mm 0.00 in/hr0.0 mm/hr 0.00 in0.0 mm
11:14 AM 75.4°F24.1°C 58.1°F14.5°C 55% Calm Calm 6.0 mph9.7 kmh 30.30 in1026.1 mb 0.00 in0.0 mm 0.00 in/hr0.0 mm/hr 0.00 in0.0 mm
11:19 AM 76.3°F24.6°C 60.0°F15.6°C 57% Calm Calm -- 30.30 in1026.1 mb 0.00 in0.0 mm 0.00 in/hr0.0 mm/hr 0.00 in0.0 mm
11:24 AM 77.5°F25.3°C 60.6°F15.9°C 56% 1.6 mph SSE2.6 kmh SSE 1.7 mph2.7 kmh 30.30 in1026.1 mb 0.00 in0.0 mm 0.00 in/hr0.0 mm/hr 0.00 in0.0 mm
11:28 AM 78.3°F25.7°C 61.8°F16.6°C 57% 2.7 mph NE4.3 kmh NE 3.0 mph4.8 kmh 30.30 in1026.1 mb 0.00 in0.0 mm 0.00 in/hr0.0 mm/hr 0.00 in0.0 mm
11:34 AM 79.2°F26.2°C 62.6°F17.0°C 57% Calm Calm 4.3 mph6.9 kmh 30.30 in1026.1 mb 0.00 in0.0 mm 0.00 in/hr0.0 mm/hr 0.00 in0.0 mm
11:39 AM 79.9°F26.6°C 62.8°F17.1°C 56% Calm Calm -- 30.27 in1025.1 mb 0.00 in0.0 mm 0.00 in/hr0.0 mm/hr 0.00 in0.0 mm
11:44 AM 80.1°F26.7°C 62.5°F16.9°C 55% 3.5 mph SE5.6 kmh SE 3.8 mph6.1 kmh 30.27 in1025.1 mb 0.00 in0.0 mm 0.00 in/hr0.0 mm/hr 0.00 in0.0 mm
11:49 AM 80.6°F27.0°C 62.4°F16.9°C 54% Calm Calm 3.0 mph4.8 kmh 30.27 in1025.1 mb 0.00 in0.0 mm 0.00 in/hr0.0 mm/hr 0.00 in0.0 mm
11:54 AM 81.0°F27.2°C 62.2°F16.8°C 53% 3.9 mph SE6.3 kmh SE 4.3 mph6.9 kmh 30.27 in1025.1 mb 0.00 in0.0 mm 0.00 in/hr0.0 mm/hr 0.00 in0.0 mm
12:00 PM 81.0°F27.2°C 62.2°F16.8°C 53% 3.9 mph SSE6.3 kmh SSE 4.3 mph6.9 kmh 30.27 in1025.1 mb 0.00 in0.0 mm 0.00 in/hr0.0 mm/hr 0.00 in0.0 mm
12:05 PM 81.1°F27.3°C 61.9°F16.6°C 52% Calm Calm 2.6 mph4.2 kmh 30.27 in1025.1 mb 0.00 in0.0 mm 0.00 in/hr0.0 mm/hr 0.00 in0.0 mm
12:10 PM 81.1°F27.3°C 61.9°F16.6°C 52% Calm Calm 5.1 mph8.2 kmh 30.27 in1025.1 mb 0.00 in0.0 mm 0.00 in/hr0.0 mm/hr 0.00 in0.0 mm
12:15 PM 81.1°F27.3°C 61.3°F16.3°C 51% 7.0 mph S11.3 kmh S 7.7 mph12.4 kmh 30.27 in1025.1 mb 0.00 in0.0 mm 0.00 in/hr0.0 mm/hr 0.00 in0.0 mm
12:18 PM 81.0°F27.2°C 61.2°F16.2°C 51% Calm Calm -- 30.27 in1025.1 mb 0.00 in0.0 mm 0.00 in/hr0.0 mm/hr 0.00 in0.0 mm
12:24 PM 81.7°F27.6°C 61.8°F16.6°C 51% 4.7 mph S7.6 kmh S 5.1 mph8.2 kmh 30.27 in1025.1 mb 0.00 in0.0 mm 0.00 in/hr0.0 mm/hr 0.00 in0.0 mm
12:28 PM 81.7°F27.6°C 61.8°F16.6°C 51% 2.3 mph SSE3.7 kmh SSE 4.3 mph6.9 kmh 30.27 in1025.1 mb 0.00 in0.0 mm 0.00 in/hr0.0 mm/hr 0.00 in0.0 mm
12:34 PM 82.0°F27.8°C 61.6°F16.4°C 50% 2.0 mph SSE3.2 kmh SSE 5.1 mph8.2 kmh 30.27 in1025.1 mb 0.00 in0.0 mm 0.00 in/hr0.0 mm/hr 0.00 in0.0 mm
12:39 PM 82.2°F27.9°C 61.8°F16.6°C 50% 1.6 mph SE2.6 kmh SE 2.6 mph4.2 kmh 30.27 in1025.1 mb 0.00 in0.0 mm 0.00 in/hr0.0 mm/hr 0.00 in0.0 mm
12:44 PM 82.2°F27.9°C 61.2°F16.2°C 49% 1.6 mph S2.6 kmh S 6.8 mph10.9 kmh 30.27 in1025.1 mb 0.00 in0.0 mm 0.00 in/hr0.0 mm/hr 0.00 in0.0 mm
12:49 PM 82.0°F27.8°C 61.0°F16.1°C 49% 7.8 mph SE12.6 kmh SE 8.5 mph13.7 kmh 30.27 in1025.1 mb 0.00 in0.0 mm 0.00 in/hr0.0 mm/hr 0.00 in0.0 mm
12:54 PM 81.9°F27.7°C 60.9°F16.1°C 49% 5.9 mph SSE9.5 kmh SSE 6.4 mph10.3 kmh 30.27 in1025.1 mb 0.00 in0.0 mm 0.00 in/hr0.0 mm/hr 0.00 in0.0 mm
12:59 PM 81.9°F27.7°C 60.9°F16.1°C 49% Calm Calm -- 30.27 in1025.1 mb 0.00 in0.0 mm 0.00 in/hr0.0 mm/hr 0.00 in0.0 mm
01:05 PM 82.4°F28.0°C 61.3°F16.3°C 49% Calm Calm -- 30.27 in1025.1 mb 0.00 in0.0 mm 0.00 in/hr0.0 mm/hr 0.00 in0.0 mm
01:10 PM 82.4°F28.0°C 60.8°F16.0°C 48% 2.7 mph SE4.3 kmh SE 4.3 mph6.9 kmh 30.27 in1025.1 mb 0.00 in0.0 mm 0.00 in/hr0.0 mm/hr 0.00 in0.0 mm
01:14 PM 82.0°F27.8°C 60.4°F15.8°C 48% 1.6 mph E2.6 kmh E 4.7 mph7.6 kmh 30.27 in1025.1 mb 0.00 in0.0 mm 0.00 in/hr0.0 mm/hr 0.00 in0.0 mm
01:19 PM 81.5°F27.5°C 59.9°F15.5°C 48% Calm Calm 4.7 mph7.6 kmh 30.27 in1025.1 mb 0.00 in0.0 mm 0.00 in/hr0.0 mm/hr 0.00 in0.0 mm
01:24 PM 81.3°F27.4°C 59.8°F15.4°C 48% Calm Calm 4.7 mph7.6 kmh 30.27 in1025.1 mb 0.00 in0.0 mm 0.00 in/hr0.0 mm/hr 0.00 in0.0 mm
01:29 PM 81.1°F27.3°C 60.2°F15.7°C 49% 11.0 mph S17.7 kmh S 11.9 mph19.2 kmh 30.27 in1025.1 mb 0.00 in0.0 mm 0.00 in/hr0.0 mm/hr 0.00 in0.0 mm
01:34 PM 81.1°F27.3°C 60.2°F15.7°C 49% Calm Calm -- 30.27 in1025.1 mb 0.00 in0.0 mm 0.00 in/hr0.0 mm/hr 0.00 in0.0 mm
01:39 PM 80.1°F26.7°C 60.3°F15.7°C 51% 5.1 mph SE8.2 kmh SE 5.5 mph8.9 kmh 30.27 in1025.1 mb 0.00 in0.0 mm 0.00 in/hr0.0 mm/hr 0.00 in0.0 mm
01:44 PM 79.5°F26.4°C 59.3°F15.2°C 50% 2.0 mph SSE3.2 kmh SSE 3.0 mph4.8 kmh 30.27 in1025.1 mb 0.00 in0.0 mm 0.00 in/hr0.0 mm/hr 0.00 in0.0 mm
01:49 PM 79.3°F26.3°C 59.7°F15.4°C 51% 2.0 mph SE3.2 kmh SE 2.1 mph3.4 kmh 30.27 in1025.1 mb 0.00 in0.0 mm 0.00 in/hr0.0 mm/hr 0.00 in0.0 mm
01:54 PM 79.2°F26.2°C 60.0°F15.6°C 52% Calm Calm 1.7 mph2.7 kmh 30.24 in1024.0 mb 0.00 in0.0 mm 0.00 in/hr0.0 mm/hr 0.00 in0.0 mm
01:59 PM 79.0°F26.1°C 59.9°F15.5°C 52% Calm Calm 3.8 mph6.1 kmh 30.24 in1024.0 mb 0.00 in0.0 mm 0.00 in/hr0.0 mm/hr 0.00 in0.0 mm
02:05 PM 78.8°F26.0°C 60.2°F15.7°C 53% Calm Calm 4.3 mph6.9 kmh 30.24 in1024.0 mb 0.00 in0.0 mm 0.00 in/hr0.0 mm/hr 0.00 in0.0 mm
02:10 PM 78.4°F25.8°C 60.4°F15.8°C 54% Calm Calm 4.3 mph6.9 kmh 30.24 in1024.0 mb 0.00 in0.0 mm 0.00 in/hr0.0 mm/hr 0.00 in0.0 mm
02:14 PM 78.4°F25.8°C 60.4°F15.8°C 54% 5.1 mph NE8.2 kmh NE 5.5 mph8.9 kmh 30.24 in1024.0 mb 0.00 in0.0 mm 0.00 in/hr0.0 mm/hr 0.00 in0.0 mm
02:19 PM 77.9°F25.5°C 60.5°F15.8°C 55% 5.5 mph SE8.9 kmh SE 6.0 mph9.7 kmh 30.24 in1024.0 mb 0.00 in0.0 mm 0.00 in/hr0.0 mm/hr 0.00 in0.0 mm
02:24 PM 77.5°F25.3°C 60.6°F15.9°C 56% 9.4 mph S15.1 kmh S 10.2 mph16.4 kmh 30.24 in1024.0 mb 0.00 in0.0 mm 0.00 in/hr0.0 mm/hr 0.00 in0.0 mm
02:29 PM 77.5°F25.3°C 60.6°F15.9°C 56% 5.1 mph SSE8.2 kmh SSE 5.5 mph8.9 kmh 30.24 in1024.0 mb 0.00 in0.0 mm 0.00 in/hr0.0 mm/hr 0.00 in0.0 mm
02:34 PM 77.5°F25.3°C 61.1°F16.2°C 57% 5.1 mph SSE8.2 kmh SSE 7.7 mph12.4 kmh 30.24 in1024.0 mb 0.00 in0.0 mm 0.00 in/hr0.0 mm/hr 0.00 in0.0 mm
02:39 PM 77.5°F25.3°C 61.1°F16.2°C 57% 5.9 mph S9.5 kmh S 6.4 mph10.3 kmh 30.24 in1024.0 mb 0.00 in0.0 mm 0.00 in/hr0.0 mm/hr 0.00 in0.0 mm
02:44 PM 77.5°F25.3°C 61.1°F16.2°C 57% 4.7 mph SSE7.6 kmh SSE 5.1 mph8.2 kmh 30.24 in1024.0 mb 0.00 in0.0 mm 0.00 in/hr0.0 mm/hr 0.00 in0.0 mm
02:49 PM 77.5°F25.3°C 61.1°F16.2°C 57% 5.1 mph SSE8.2 kmh SSE 5.5 mph8.9 kmh 30.24 in1024.0 mb 0.00 in0.0 mm 0.00 in/hr0.0 mm/hr 0.00 in0.0 mm
02:53 PM 77.5°F25.3°C 61.1°F16.2°C 57% 4.3 mph S6.9 kmh S 4.7 mph7.6 kmh 30.24 in1024.0 mb 0.00 in0.0 mm 0.00 in/hr0.0 mm/hr 0.00 in0.0 mm
02:59 PM 77.5°F25.3°C 61.1°F16.2°C 57% 5.1 mph SSE8.2 kmh SSE 5.5 mph8.9 kmh 30.24 in1024.0 mb 0.00 in0.0 mm 0.00 in/hr0.0 mm/hr 0.00 in0.0 mm
03:05 PM 77.5°F25.3°C 61.6°F16.4°C 58% Calm Calm -- 30.24 in1024.0 mb 0.00 in0.0 mm 0.00 in/hr0.0 mm/hr 0.00 in0.0 mm
03:10 PM 77.5°F25.3°C 61.6°F16.4°C 58% 4.3 mph S6.9 kmh S 4.7 mph7.6 kmh 30.24 in1024.0 mb 0.00 in0.0 mm 0.00 in/hr0.0 mm/hr 0.00 in0.0 mm
03:15 PM 77.4°F25.2°C 61.0°F16.1°C 57% Calm Calm -- 30.24 in1024.0 mb 0.00 in0.0 mm 0.00 in/hr0.0 mm/hr 0.00 in0.0 mm
03:20 PM 77.4°F25.2°C 60.5°F15.8°C 56% 3.5 mph SSE5.6 kmh SSE 7.7 mph12.4 kmh 30.24 in1024.0 mb 0.00 in0.0 mm 0.00 in/hr0.0 mm/hr 0.00 in0.0 mm
03:24 PM 77.5°F25.3°C 61.1°F16.2°C 57% 3.5 mph SSE5.6 kmh SSE 3.8 mph6.1 kmh 30.24 in1024.0 mb 0.00 in0.0 mm 0.00 in/hr0.0 mm/hr 0.00 in0.0 mm
03:29 PM 77.5°F25.3°C 60.6°F15.9°C 56% 2.3 mph SSE3.7 kmh SSE 4.7 mph7.6 kmh 30.24 in1024.0 mb 0.00 in0.0 mm 0.00 in/hr0.0 mm/hr 0.00 in0.0 mm
03:34 PM 77.4°F25.2°C 60.5°F15.8°C 56% Calm Calm -- 30.24 in1024.0 mb 0.00 in0.0 mm 0.00 in/hr0.0 mm/hr 0.00 in0.0 mm
03:39 PM 77.2°F25.1°C 60.3°F15.7°C 56% 1.6 mph SSE2.6 kmh SSE 1.7 mph2.7 kmh 30.21 in1023.0 mb 0.00 in0.0 mm 0.00 in/hr0.0 mm/hr 0.00 in0.0 mm
03:44 PM 77.0°F25.0°C 60.6°F15.9°C 57% Calm Calm -- 30.21 in1023.0 mb 0.00 in0.0 mm 0.00 in/hr0.0 mm/hr 0.00 in0.0 mm
03:49 PM 77.2°F25.1°C 60.8°F16.0°C 57% 5.1 mph S8.2 kmh S 5.5 mph8.9 kmh 30.21 in1023.0 mb 0.00 in0.0 mm 0.00 in/hr0.0 mm/hr 0.00 in0.0 mm
03:54 PM 77.2°F25.1°C 60.8°F16.0°C 57% Calm Calm -- 30.24 in1024.0 mb 0.00 in0.0 mm 0.00 in/hr0.0 mm/hr 0.00 in0.0 mm
03:59 PM 77.2°F25.1°C 60.8°F16.0°C 57% 4.3 mph ENE6.9 kmh ENE 4.7 mph7.6 kmh 30.24 in1024.0 mb 0.00 in0.0 mm 0.00 in/hr0.0 mm/hr 0.00 in0.0 mm
04:05 PM 77.0°F25.0°C 60.6°F15.9°C 57% 2.3 mph ENE3.7 kmh ENE 2.6 mph4.2 kmh 30.24 in1024.0 mb 0.00 in0.0 mm 0.00 in/hr0.0 mm/hr 0.00 in0.0 mm
04:09 PM 77.0°F25.0°C 60.6°F15.9°C 57% Calm Calm 3.0 mph4.8 kmh 30.24 in1024.0 mb 0.00 in0.0 mm 0.00 in/hr0.0 mm/hr 0.00 in0.0 mm
04:15 PM 77.0°F25.0°C 60.6°F15.9°C 57% 1.6 mph SE2.6 kmh SE 2.6 mph4.2 kmh 30.24 in1024.0 mb 0.00 in0.0 mm 0.00 in/hr0.0 mm/hr 0.00 in0.0 mm
04:20 PM 77.0°F25.0°C 60.6°F15.9°C 57% Calm Calm -- 30.24 in1024.0 mb 0.00 in0.0 mm 0.00 in/hr0.0 mm/hr 0.00 in0.0 mm
04:24 PM 76.8°F24.9°C 60.5°F15.8°C 57% Calm Calm -- 30.24 in1024.0 mb 0.00 in0.0 mm 0.00 in/hr0.0 mm/hr 0.00 in0.0 mm
04:29 PM 76.8°F24.9°C 60.5°F15.8°C 57% 2.0 mph SSW3.2 kmh SSW 2.1 mph3.4 kmh 30.24 in1024.0 mb 0.00 in0.0 mm 0.00 in/hr0.0 mm/hr 0.00 in0.0 mm
04:33 PM 76.8°F24.9°C 60.5°F15.8°C 57% 2.7 mph SSE4.3 kmh SSE 7.2 mph11.6 kmh 30.24 in1024.0 mb 0.00 in0.0 mm 0.00 in/hr0.0 mm/hr 0.00 in0.0 mm
04:39 PM 76.6°F24.8°C 60.3°F15.7°C 57% 1.6 mph SSE2.6 kmh SSE 2.6 mph4.2 kmh 30.24 in1024.0 mb 0.00 in0.0 mm 0.00 in/hr0.0 mm/hr 0.00 in0.0 mm
04:44 PM 76.6°F24.8°C 59.8°F15.4°C 56% Calm Calm -- 30.24 in1024.0 mb 0.00 in0.0 mm 0.00 in/hr0.0 mm/hr 0.00 in0.0 mm
04:49 PM 76.5°F24.7°C 60.1°F15.6°C 57% Calm Calm 2.1 mph3.4 kmh 30.24 in1024.0 mb 0.00 in0.0 mm 0.00 in/hr0.0 mm/hr 0.00 in0.0 mm
04:54 PM 76.5°F24.7°C 60.1°F15.6°C 57% 4.3 mph SSE6.9 kmh SSE 4.7 mph7.6 kmh 30.24 in1024.0 mb 0.00 in0.0 mm 0.00 in/hr0.0 mm/hr 0.00 in0.0 mm
04:59 PM 76.3°F24.6°C 60.0°F15.6°C 57% 1.6 mph S2.6 kmh S 1.7 mph2.7 kmh 30.24 in1024.0 mb 0.00 in0.0 mm 0.00 in/hr0.0 mm/hr 0.00 in0.0 mm
05:04 PM 76.1°F24.5°C 59.8°F15.4°C 57% Calm Calm -- 30.24 in1024.0 mb 0.00 in0.0 mm 0.00 in/hr0.0 mm/hr 0.00 in0.0 mm
05:10 PM 76.1°F24.5°C 59.8°F15.4°C 57% Calm Calm 3.8 mph6.1 kmh 30.24 in1024.0 mb 0.00 in0.0 mm 0.00 in/hr0.0 mm/hr 0.00 in0.0 mm
05:14 PM 76.1°F24.5°C 59.8°F15.4°C 57% Calm Calm 5.1 mph8.2 kmh 30.24 in1024.0 mb 0.00 in0.0 mm 0.00 in/hr0.0 mm/hr 0.00 in0.0 mm
05:20 PM 75.7°F24.3°C 59.4°F15.2°C 57% 2.3 mph SSE3.7 kmh SSE 2.6 mph4.2 kmh 30.24 in1024.0 mb 0.00 in0.0 mm 0.00 in/hr0.0 mm/hr 0.00 in0.0 mm
05:24 PM 75.7°F24.3°C 59.4°F15.2°C 57% Calm Calm -- 30.24 in1024.0 mb 0.00 in0.0 mm 0.00 in/hr0.0 mm/hr 0.00 in0.0 mm
05:29 PM 75.4°F24.1°C 59.1°F15.1°C 57% Calm Calm 2.1 mph3.4 kmh 30.24 in1024.0 mb 0.00 in0.0 mm 0.00 in/hr0.0 mm/hr 0.00 in0.0 mm
05:33 PM 75.2°F24.0°C 58.9°F14.9°C 57% Calm Calm -- 30.24 in1024.0 mb 0.00 in0.0 mm 0.00 in/hr0.0 mm/hr 0.00 in0.0 mm
05:39 PM 74.8°F23.8°C 59.1°F15.1°C 58% Calm Calm -- 30.24 in1024.0 mb 0.00 in0.0 mm 0.00 in/hr0.0 mm/hr 0.00 in0.0 mm
05:44 PM 74.7°F23.7°C 58.9°F14.9°C 58% Calm Calm -- 30.24 in1024.0 mb 0.00 in0.0 mm 0.00 in/hr0.0 mm/hr 0.00 in0.0 mm
05:49 PM 74.3°F23.5°C 59.1°F15.1°C 59% 4.3 mph NE6.9 kmh NE 4.7 mph7.6 kmh 30.24 in1024.0 mb 0.00 in0.0 mm 0.00 in/hr0.0 mm/hr 0.00 in0.0 mm
05:54 PM 73.9°F23.3°C 58.7°F14.8°C 59% 2.3 mph NE3.7 kmh NE 3.0 mph4.8 kmh 30.24 in1024.0 mb 0.00 in0.0 mm 0.00 in/hr0.0 mm/hr 0.00 in0.0 mm
05:59 PM 73.8°F23.2°C 58.6°F14.8°C 59% Calm Calm -- 30.24 in1024.0 mb 0.00 in0.0 mm 0.00 in/hr0.0 mm/hr 0.00 in0.0 mm
06:04 PM 73.6°F23.1°C 58.4°F14.7°C 59% Calm Calm -- 30.24 in1024.0 mb 0.00 in0.0 mm 0.00 in/hr0.0 mm/hr 0.00 in0.0 mm
06:10 PM 73.4°F23.0°C 58.2°F14.6°C 59% Calm Calm -- 30.24 in1024.0 mb 0.00 in0.0 mm 0.00 in/hr0.0 mm/hr 0.00 in0.0 mm
06:15 PM 73.2°F22.9°C 58.5°F14.7°C 60% Calm Calm -- 30.24 in1024.0 mb 0.00 in0.0 mm 0.00 in/hr0.0 mm/hr 0.00 in0.0 mm
06:20 PM 73.2°F22.9°C 58.5°F14.7°C 60% 3.9 mph NE6.3 kmh NE 5.5 mph8.9 kmh 30.24 in1024.0 mb 0.00 in0.0 mm 0.00 in/hr0.0 mm/hr 0.00 in0.0 mm
06:24 PM 73.0°F22.8°C 57.9°F14.4°C 59% 4.3 mph NE6.9 kmh NE 4.7 mph7.6 kmh 30.24 in1024.0 mb 0.00 in0.0 mm 0.00 in/hr0.0 mm/hr 0.00 in0.0 mm
06:29 PM 73.0°F22.8°C 57.9°F14.4°C 59% Calm Calm -- 30.24 in1024.0 mb 0.00 in0.0 mm 0.00 in/hr0.0 mm/hr 0.00 in0.0 mm
06:34 PM 72.9°F22.7°C 57.7°F14.3°C 59% Calm Calm -- 30.24 in1024.0 mb 0.00 in0.0 mm 0.00 in/hr0.0 mm/hr 0.00 in0.0 mm
06:39 PM 72.7°F22.6°C 57.5°F14.2°C 59% Calm Calm -- 30.24 in1024.0 mb 0.00 in0.0 mm 0.00 in/hr0.0 mm/hr 0.00 in0.0 mm
06:44 PM 72.7°F22.6°C 57.5°F14.2°C 59% Calm Calm -- 30.24 in1024.0 mb 0.00 in0.0 mm 0.00 in/hr0.0 mm/hr 0.00 in0.0 mm
06:49 PM 72.5°F22.5°C 57.4°F14.1°C 59% Calm Calm -- 30.24 in1024.0 mb 0.00 in0.0 mm 0.00 in/hr0.0 mm/hr 0.00 in0.0 mm
06:54 PM 72.5°F22.5°C 57.8°F14.3°C 60% Calm Calm -- 30.24 in1024.0 mb 0.00 in0.0 mm 0.00 in/hr0.0 mm/hr 0.00 in0.0 mm
06:59 PM 72.3°F22.4°C 57.7°F14.3°C 60% Calm Calm -- 30.24 in1024.0 mb 0.00 in0.0 mm 0.00 in/hr0.0 mm/hr 0.00 in0.0 mm
07:05 PM 72.1°F22.3°C 57.5°F14.2°C 60% Calm Calm -- 30.24 in1024.0 mb 0.00 in0.0 mm 0.00 in/hr0.0 mm/hr 0.00 in0.0 mm
07:10 PM 72.1°F22.3°C 58.0°F14.4°C 61% Calm Calm -- 30.24 in1024.0 mb 0.00 in0.0 mm 0.00 in/hr0.0 mm/hr 0.00 in0.0 mm
07:15 PM 72.0°F22.2°C 57.8°F14.3°C 61% Calm Calm -- 30.24 in1024.0 mb 0.00 in0.0 mm 0.00 in/hr0.0 mm/hr 0.00 in0.0 mm
07:20 PM 72.0°F22.2°C 57.8°F14.3°C 61% Calm Calm -- 30.24 in1024.0 mb 0.00 in0.0 mm 0.00 in/hr0.0 mm/hr 0.00 in0.0 mm
07:24 PM 71.8°F22.1°C 58.1°F14.5°C 62% Calm Calm -- 30.24 in1024.0 mb 0.00 in0.0 mm 0.00 in/hr0.0 mm/hr 0.00 in0.0 mm
07:29 PM 71.6°F22.0°C 57.9°F14.4°C 62% Calm Calm -- 30.24 in1024.0 mb 0.00 in0.0 mm 0.00 in/hr0.0 mm/hr 0.00 in0.0 mm
07:34 PM 71.6°F22.0°C 58.4°F14.7°C 63% Calm Calm -- 30.24 in1024.0 mb 0.00 in0.0 mm 0.00 in/hr0.0 mm/hr 0.00 in0.0 mm
07:39 PM 71.6°F22.0°C 58.4°F14.7°C 63% Calm Calm -- 30.24 in1024.0 mb 0.00 in0.0 mm 0.00 in/hr0.0 mm/hr 0.00 in0.0 mm
07:44 PM 71.4°F21.9°C 58.6°F14.8°C 64% Calm Calm -- 30.24 in1024.0 mb 0.00 in0.0 mm 0.00 in/hr0.0 mm/hr 0.00 in0.0 mm
07:49 PM 71.4°F21.9°C 58.6°F14.8°C 64% Calm Calm -- 30.24 in1024.0 mb 0.00 in0.0 mm 0.00 in/hr0.0 mm/hr 0.00 in0.0 mm
07:54 PM 71.4°F21.9°C 58.6°F14.8°C 64% Calm Calm -- 30.27 in1025.1 mb 0.00 in0.0 mm 0.00 in/hr0.0 mm/hr 0.00 in0.0 mm
07:59 PM 71.4°F21.9°C 58.6°F14.8°C 64% Calm Calm -- 30.27 in1025.1 mb 0.00 in0.0 mm 0.00 in/hr0.0 mm/hr 0.00 in0.0 mm
08:04 PM 71.6°F22.0°C 58.8°F14.9°C 64% Calm Calm -- 30.27 in1025.1 mb 0.00 in0.0 mm 0.00 in/hr0.0 mm/hr 0.00 in0.0 mm
08:10 PM 71.6°F22.0°C 59.2°F15.1°C 65% Calm Calm -- 30.27 in1025.1 mb 0.00 in0.0 mm 0.00 in/hr0.0 mm/hr 0.00 in0.0 mm
08:15 PM 71.8°F22.1°C 59.4°F15.2°C 65% Calm Calm -- 30.27 in1025.1 mb 0.00 in0.0 mm 0.00 in/hr0.0 mm/hr 0.00 in0.0 mm
08:20 PM 71.6°F22.0°C 59.2°F15.1°C 65% Calm Calm -- 30.27 in1025.1 mb 0.00 in0.0 mm 0.00 in/hr0.0 mm/hr 0.00 in0.0 mm
08:23 PM 71.6°F22.0°C 59.2°F15.1°C 65% Calm Calm -- 30.27 in1025.1 mb 0.00 in0.0 mm 0.00 in/hr0.0 mm/hr 0.00 in0.0 mm
08:29 PM 71.4°F21.9°C 59.1°F15.1°C 65% Calm Calm -- 30.27 in1025.1 mb 0.00 in0.0 mm 0.00 in/hr0.0 mm/hr 0.00 in0.0 mm
08:34 PM 71.6°F22.0°C 58.8°F14.9°C 64% Calm Calm -- 30.27 in1025.1 mb 0.00 in0.0 mm 0.00 in/hr0.0 mm/hr 0.00 in0.0 mm
08:39 PM 71.6°F22.0°C 58.8°F14.9°C 64% Calm Calm -- 30.27 in1025.1 mb 0.00 in0.0 mm 0.00 in/hr0.0 mm/hr 0.00 in0.0 mm
08:44 PM 71.6°F22.0°C 58.8°F14.9°C 64% Calm Calm -- 30.27 in1025.1 mb 0.00 in0.0 mm 0.00 in/hr0.0 mm/hr 0.00 in0.0 mm
08:49 PM 71.6°F22.0°C 58.4°F14.7°C 63% Calm Calm -- 30.27 in1025.1 mb 0.00 in0.0 mm 0.00 in/hr0.0 mm/hr 0.00 in0.0 mm
08:54 PM 71.8°F22.1°C 58.5°F14.7°C 63% Calm Calm -- 30.27 in1025.1 mb 0.00 in0.0 mm 0.00 in/hr0.0 mm/hr 0.00 in0.0 mm
08:59 PM 71.8°F22.1°C 58.5°F14.7°C 63% Calm Calm 4.7 mph7.6 kmh 30.27 in1025.1 mb 0.00 in0.0 mm 0.00 in/hr0.0 mm/hr 0.00 in0.0 mm
09:03 PM 71.8°F22.1°C 59.0°F15.0°C 64% Calm Calm -- 30.27 in1025.1 mb 0.00 in0.0 mm 0.00 in/hr0.0 mm/hr 0.00 in0.0 mm
09:10 PM 71.6°F22.0°C 58.8°F14.9°C 64% Calm Calm -- 30.27 in1025.1 mb 0.00 in0.0 mm 0.00 in/hr0.0 mm/hr 0.00 in0.0 mm
09:15 PM 71.4°F21.9°C 58.6°F14.8°C 64% Calm Calm -- 30.27 in1025.1 mb 0.00 in0.0 mm 0.00 in/hr0.0 mm/hr 0.00 in0.0 mm
09:20 PM 71.4°F21.9°C 59.1°F15.1°C 65% 5.9 mph NE9.5 kmh NE 6.4 mph10.3 kmh 30.27 in1025.1 mb 0.00 in0.0 mm 0.00 in/hr0.0 mm/hr 0.00 in0.0 mm
09:24 PM 71.6°F22.0°C 58.8°F14.9°C 64% Calm Calm 4.7 mph7.6 kmh 30.27 in1025.1 mb 0.00 in0.0 mm 0.00 in/hr0.0 mm/hr 0.00 in0.0 mm
09:29 PM 71.4°F21.9°C 59.1°F15.1°C 65% Calm Calm -- 30.27 in1025.1 mb 0.00 in0.0 mm 0.00 in/hr0.0 mm/hr 0.00 in0.0 mm
09:34 PM 71.2°F21.8°C 58.9°F14.9°C 65% Calm Calm -- 30.27 in1025.1 mb 0.00 in0.0 mm 0.00 in/hr0.0 mm/hr 0.00 in0.0 mm
09:38 PM 71.2°F21.8°C 58.9°F14.9°C 65% Calm Calm -- 30.27 in1025.1 mb 0.00 in0.0 mm 0.00 in/hr0.0 mm/hr 0.00 in0.0 mm
09:44 PM 71.1°F21.7°C 59.1°F15.1°C 66% Calm Calm -- 30.27 in1025.1 mb 0.00 in0.0 mm 0.00 in/hr0.0 mm/hr 0.00 in0.0 mm
09:49 PM 71.1°F21.7°C 59.1°F15.1°C 66% Calm Calm -- 30.27 in1025.1 mb 0.00 in0.0 mm 0.00 in/hr0.0 mm/hr 0.00 in0.0 mm
09:53 PM 71.1°F21.7°C 59.1°F15.1°C 66% Calm Calm -- 30.27 in1025.1 mb 0.00 in0.0 mm 0.00 in/hr0.0 mm/hr 0.00 in0.0 mm
09:59 PM 71.1°F21.7°C 59.1°F15.1°C 66% 2.3 mph NE3.7 kmh NE 2.6 mph4.2 kmh 30.27 in1025.1 mb 0.00 in0.0 mm 0.00 in/hr0.0 mm/hr 0.00 in0.0 mm
10:04 PM 71.1°F21.7°C 59.1°F15.1°C 66% 3.5 mph NE5.6 kmh NE 3.8 mph6.1 kmh 30.27 in1025.1 mb 0.00 in0.0 mm 0.00 in/hr0.0 mm/hr 0.00 in0.0 mm
10:10 PM 71.1°F21.7°C 59.1°F15.1°C 66% Calm Calm 3.8 mph6.1 kmh 30.27 in1025.1 mb 0.00 in0.0 mm 0.00 in/hr0.0 mm/hr 0.00 in0.0 mm
10:15 PM 71.1°F21.7°C 59.6°F15.3°C 67% Calm Calm -- 30.27 in1025.1 mb 0.00 in0.0 mm 0.00 in/hr0.0 mm/hr 0.00 in0.0 mm
10:20 PM 71.1°F21.7°C 59.6°F15.3°C 67% Calm Calm -- 30.27 in1025.1 mb 0.00 in0.0 mm 0.00 in/hr0.0 mm/hr 0.00 in0.0 mm
10:25 PM 71.1°F21.7°C 59.6°F15.3°C 67% Calm Calm -- 30.27 in1025.1 mb 0.00 in0.0 mm 0.00 in/hr0.0 mm/hr 0.00 in0.0 mm
10:29 PM 70.9°F21.6°C 59.4°F15.2°C 67% Calm Calm -- 30.27 in1025.1 mb 0.00 in0.0 mm 0.00 in/hr0.0 mm/hr 0.00 in0.0 mm
10:34 PM 70.9°F21.6°C 59.4°F15.2°C 67% Calm Calm -- 30.27 in1025.1 mb 0.00 in0.0 mm 0.00 in/hr0.0 mm/hr 0.00 in0.0 mm
10:39 PM 70.7°F21.5°C 59.2°F15.1°C 67% Calm Calm -- 30.27 in1025.1 mb 0.00 in0.0 mm 0.00 in/hr0.0 mm/hr 0.00 in0.0 mm
10:44 PM 70.7°F21.5°C 59.6°F15.3°C 68% Calm Calm -- 30.27 in1025.1 mb 0.00 in0.0 mm 0.00 in/hr0.0 mm/hr 0.00 in0.0 mm
10:49 PM 70.7°F21.5°C 59.6°F15.3°C 68% 3.9 mph NNE6.3 kmh NNE 4.3 mph6.9 kmh 30.27 in1025.1 mb 0.00 in0.0 mm 0.00 in/hr0.0 mm/hr 0.00 in0.0 mm
10:54 PM 70.7°F21.5°C 59.6°F15.3°C 68% Calm Calm -- 30.27 in1025.1 mb 0.00 in0.0 mm 0.00 in/hr0.0 mm/hr 0.00 in0.0 mm
10:59 PM 70.7°F21.5°C 59.6°F15.3°C 68% Calm Calm 3.0 mph4.8 kmh 30.27 in1025.1 mb 0.00 in0.0 mm 0.00 in/hr0.0 mm/hr 0.00 in0.0 mm
11:04 PM 70.7°F21.5°C 59.6°F15.3°C 68% 4.7 mph 7.6 kmh 5.5 mph8.9 kmh 30.27 in1025.1 mb 0.00 in0.0 mm 0.00 in/hr0.0 mm/hr 0.00 in0.0 mm
11:09 PM 70.5°F21.4°C 59.5°F15.3°C 68% Calm Calm -- 30.27 in1025.1 mb 0.00 in0.0 mm 0.00 in/hr0.0 mm/hr 0.00 in0.0 mm
11:15 PM 70.5°F21.4°C 59.9°F15.5°C 69% 5.9 mph NE9.5 kmh NE 6.8 mph10.9 kmh 30.27 in1025.1 mb 0.00 in0.0 mm 0.00 in/hr0.0 mm/hr 0.00 in0.0 mm
11:20 PM 70.5°F21.4°C 59.9°F15.5°C 69% Calm Calm 3.0 mph4.8 kmh 30.27 in1025.1 mb 0.00 in0.0 mm 0.00 in/hr0.0 mm/hr 0.00 in0.0 mm
11:25 PM 70.3°F21.3°C 59.7°F15.4°C 69% Calm Calm -- 30.24 in1024.0 mb 0.00 in0.0 mm 0.00 in/hr0.0 mm/hr 0.00 in0.0 mm
11:29 PM 70.3°F21.3°C 59.7°F15.4°C 69% Calm Calm -- 30.24 in1024.0 mb 0.00 in0.0 mm 0.00 in/hr0.0 mm/hr 0.00 in0.0 mm
11:34 PM 70.2°F21.2°C 59.5°F15.3°C 69% Calm Calm -- 30.24 in1024.0 mb 0.00 in0.0 mm 0.00 in/hr0.0 mm/hr 0.00 in0.0 mm
11:39 PM 70.0°F21.1°C 59.8°F15.4°C 70% Calm Calm -- 30.27 in1025.1 mb 0.00 in0.0 mm 0.00 in/hr0.0 mm/hr 0.00 in0.0 mm
11:44 PM 70.0°F21.1°C 60.2°F15.7°C 71% 4.3 mph NNE6.9 kmh NNE 7.2 mph11.6 kmh 30.27 in1025.1 mb 0.00 in0.0 mm 0.00 in/hr0.0 mm/hr 0.00 in0.0 mm
11:49 PM 70.2°F21.2°C 60.3°F15.7°C 71% Calm Calm 2.6 mph4.2 kmh 30.27 in1025.1 mb 0.00 in0.0 mm 0.00 in/hr0.0 mm/hr 0.00 in0.0 mm
11:54 PM 70.2°F21.2°C 59.9°F15.5°C 70% Calm Calm 3.0 mph4.8 kmh 30.24 in1024.0 mb 0.00 in0.0 mm 0.00 in/hr0.0 mm/hr 0.00 in0.0 mm
11:59 PM 70.2°F21.2°C 59.9°F15.5°C 70% Calm Calm -- 30.24 in1024.0 mb 0.00 in0.0 mm 0.00 in/hr0.0 mm/hr 0.00 in0.0 mm